createdAt,value
2017-10-14T00:00:18.761Z,9.82
2017-10-14T00:01:18.412Z,9.92
2017-10-14T00:02:18.761Z,9.78
2017-10-14T00:03:18.732Z,9.82
2017-10-14T00:04:18.719Z,9.77
2017-10-14T00:05:18.733Z,9.78
2017-10-14T00:06:18.702Z,9.64
2017-10-14T00:07:19.035Z,9.66
2017-10-14T00:08:18.704Z,9.7
2017-10-14T00:09:18.339Z,9.71
2017-10-14T00:10:18.324Z,9.57
2017-10-14T00:11:18.680Z,9.6
2017-10-14T00:12:18.302Z,9.66
2017-10-14T00:13:18.633Z,9.66
2017-10-14T00:14:18.304Z,9.63
2017-10-14T00:15:18.292Z,9.6
2017-10-14T00:16:18.268Z,9.53
2017-10-14T00:17:18.623Z,9.55
2017-10-14T00:18:18.945Z,9.6
2017-10-14T00:19:18.920Z,9.53
2017-10-14T00:20:18.223Z,9.53
2017-10-14T00:21:18.566Z,9.5
2017-10-14T00:22:18.205Z,9.5
2017-10-14T00:23:18.557Z,9.53
2017-10-14T00:24:18.184Z,9.47
2017-10-14T00:25:18.524Z,9.48
2017-10-14T00:26:18.503Z,9.45
2017-10-14T00:27:18.512Z,9.34
2017-10-14T00:28:18.855Z,9.41
2017-10-14T00:29:18.136Z,9.32
2017-10-14T00:30:18.805Z,9.29
2017-10-14T00:31:18.464Z,9.3
2017-10-14T00:32:18.454Z,9.29
2017-10-14T00:33:18.093Z,9.42
2017-10-14T00:34:18.422Z,9.39
2017-10-14T00:35:18.415Z,9.48
2017-10-14T00:36:18.770Z,9.45
2017-10-14T00:37:18.745Z,9.47
2017-10-14T00:38:18.046Z,9.45
2017-10-14T00:39:18.037Z,9.48
2017-10-14T00:40:18.046Z,9.52
2017-10-14T00:41:18.688Z,9.42
2017-10-14T00:42:18.362Z,9.44
2017-10-14T00:43:18.339Z,9.39
2017-10-14T00:44:17.983Z,9.5
2017-10-14T00:45:18.659Z,9.47
2017-10-14T00:46:17.979Z,9.56
2017-10-14T00:47:17.957Z,9.59
2017-10-14T00:48:17.940Z,9.55
2017-10-14T00:49:18.280Z,9.6
2017-10-14T00:50:17.932Z,9.59
2017-10-14T00:51:17.912Z,9.66
2017-10-14T00:52:18.240Z,9.66
2017-10-14T00:53:18.281Z,9.74
2017-10-14T00:54:18.225Z,9.72
2017-10-14T00:55:17.872Z,9.71
2017-10-14T00:56:17.870Z,9.75
2017-10-14T00:57:18.196Z,9.75
2017-10-14T00:58:18.184Z,9.7
2017-10-14T00:59:18.515Z,9.67
2017-10-14T01:00:17.822Z,9.7
2017-10-14T01:01:18.169Z,9.66
2017-10-14T01:02:17.803Z,9.63
2017-10-14T01:03:18.141Z,9.59
2017-10-14T01:04:18.132Z,9.6
2017-10-14T01:05:17.775Z,9.62
2017-10-14T01:06:17.766Z,9.57
2017-10-14T01:07:18.097Z,9.62
2017-10-14T01:08:18.459Z,9.66
2017-10-14T01:09:18.073Z,9.6
2017-10-14T01:10:18.063Z,9.71
2017-10-14T01:11:17.727Z,9.72
2017-10-14T01:12:18.060Z,9.71
2017-10-14T01:13:17.692Z,9.77
2017-10-14T01:14:17.681Z,9.78
2017-10-14T01:15:18.012Z,9.89
2017-10-14T01:16:17.664Z,9.93
2017-10-14T01:17:17.649Z,9.93
2017-10-14T01:18:17.644Z,10.05
2017-10-14T01:19:18.321Z,10.07
2017-10-14T01:20:17.965Z,10.07
2017-10-14T01:21:17.634Z,10.17
2017-10-14T01:22:17.604Z,10.2
2017-10-14T01:23:17.594Z,10.25
2017-10-14T01:24:17.583Z,10.28
2017-10-14T01:25:17.575Z,10.28
2017-10-14T01:26:17.565Z,10.31
2017-10-14T01:27:17.558Z,10.36
2017-10-14T01:28:17.544Z,10.38
2017-10-14T01:29:17.536Z,10.42
2017-10-14T01:30:17.547Z,10.44
2017-10-14T01:31:18.199Z,10.44
2017-10-14T01:32:17.847Z,10.47
2017-10-14T01:33:17.505Z,10.47
2017-10-14T01:34:17.840Z,10.54
2017-10-14T01:35:17.818Z,10.57
2017-10-14T01:36:17.807Z,10.61
2017-10-14T01:37:17.801Z,10.59
2017-10-14T01:38:17.465Z,10.59
2017-10-14T01:39:17.787Z,10.59
2017-10-14T01:40:17.430Z,10.59
2017-10-14T01:41:17.422Z,10.57
2017-10-14T01:42:17.751Z,10.52
2017-10-14T01:43:17.739Z,10.52
2017-10-14T01:44:17.409Z,10.49
2017-10-14T01:45:17.381Z,10.44
2017-10-14T01:46:17.719Z,10.44
2017-10-14T01:47:17.365Z,10.35
2017-10-14T01:48:18.045Z,10.35
2017-10-14T01:49:17.347Z,10.36
2017-10-14T01:50:17.681Z,10.33
2017-10-14T01:51:17.670Z,10.25
2017-10-14T01:52:17.663Z,10.21
2017-10-14T01:53:17.307Z,10.26
2017-10-14T01:54:17.640Z,10.2
2017-10-14T01:55:17.635Z,10.13
2017-10-14T01:56:17.622Z,10.14
2017-10-14T01:57:17.947Z,10.08
2017-10-14T01:58:17.616Z,10.07
2017-10-14T01:59:17.590Z,10
2017-10-14T02:00:17.259Z,9.9
2017-10-14T02:01:17.576Z,9.9
2017-10-14T02:02:17.608Z,9.82
2017-10-14T02:03:17.912Z,9.78
2017-10-14T02:04:17.546Z,9.74
2017-10-14T02:05:17.878Z,9.8
2017-10-14T02:06:17.534Z,9.7
2017-10-14T02:07:17.177Z,9.66
2017-10-14T02:08:17.184Z,9.57
2017-10-14T02:09:17.154Z,9.6
2017-10-14T02:10:17.491Z,9.48
2017-10-14T02:11:17.160Z,9.52
2017-10-14T02:12:17.128Z,9.55
2017-10-14T02:13:17.118Z,9.52
2017-10-14T02:14:17.802Z,9.48
2017-10-14T02:15:17.797Z,9.24
2017-10-14T02:16:17.092Z,9.26
2017-10-14T02:17:17.426Z,9.32
2017-10-14T02:18:17.068Z,9.19
2017-10-14T02:19:17.059Z,9.19
2017-10-14T02:20:17.392Z,9.16
2017-10-14T02:21:17.380Z,9.09
2017-10-14T02:22:17.370Z,9.11
2017-10-14T02:23:17.372Z,9.01
2017-10-14T02:24:17.347Z,9.14
2017-10-14T02:25:17.340Z,9.08
2017-10-14T02:26:17.334Z,9.01
2017-10-14T02:27:16.983Z,9.09
2017-10-14T02:28:17.322Z,8.97
2017-10-14T02:29:17.297Z,8.97
2017-10-14T02:30:16.948Z,9.01
2017-10-14T02:31:16.941Z,8.98
2017-10-14T02:32:16.932Z,8.9
2017-10-14T02:33:16.920Z,9.01
2017-10-14T02:34:16.913Z,8.97
2017-10-14T02:35:16.900Z,9.01
2017-10-14T02:36:16.885Z,8.97
2017-10-14T02:37:17.558Z,8.9
2017-10-14T02:38:17.553Z,8.87
2017-10-14T02:39:16.859Z,8.94
2017-10-14T02:40:17.196Z,8.9
2017-10-14T02:41:16.837Z,9.01
2017-10-14T02:42:17.168Z,8.95
2017-10-14T02:43:17.156Z,8.97
2017-10-14T02:44:16.809Z,8.95
2017-10-14T02:45:17.166Z,8.95
2017-10-14T02:46:16.800Z,8.89
2017-10-14T02:47:17.470Z,8.95
2017-10-14T02:48:17.467Z,8.85
2017-10-14T02:49:16.755Z,8.87
2017-10-14T02:50:16.750Z,8.89
2017-10-14T02:51:17.081Z,8.83
2017-10-14T02:52:17.069Z,8.86
2017-10-14T02:53:17.068Z,8.82
2017-10-14T02:54:17.044Z,8.87
2017-10-14T02:55:17.036Z,8.83
2017-10-14T02:56:16.684Z,8.8
2017-10-14T02:57:17.011Z,8.69
2017-10-14T02:58:16.668Z,8.71
2017-10-14T02:59:17.033Z,8.77
2017-10-14T03:00:16.640Z,8.67
2017-10-14T03:01:16.639Z,8.72
2017-10-14T03:02:16.642Z,8.72
2017-10-14T03:03:16.620Z,8.71
2017-10-14T03:04:16.940Z,8.69
2017-10-14T03:05:16.967Z,8.69
2017-10-14T03:06:16.579Z,8.74
2017-10-14T03:07:16.582Z,8.69
2017-10-14T03:08:17.255Z,8.72
2017-10-14T03:09:16.889Z,8.71
2017-10-14T03:10:16.886Z,8.72
2017-10-14T03:11:16.871Z,8.67
2017-10-14T03:12:16.516Z,8.71
2017-10-14T03:13:16.523Z,8.65
2017-10-14T03:14:16.492Z,8.74
2017-10-14T03:15:16.486Z,8.71
2017-10-14T03:16:17.159Z,8.67
2017-10-14T03:17:17.148Z,8.68
2017-10-14T03:18:17.134Z,8.64
2017-10-14T03:19:16.445Z,8.71
2017-10-14T03:20:16.787Z,8.71
2017-10-14T03:21:16.759Z,8.68
2017-10-14T03:22:16.751Z,8.64
2017-10-14T03:23:17.096Z,8.65
2017-10-14T03:24:16.728Z,8.67
2017-10-14T03:25:16.716Z,8.67
2017-10-14T03:26:16.390Z,8.61
2017-10-14T03:27:16.353Z,8.67
2017-10-14T03:28:17.038Z,8.64
2017-10-14T03:29:16.678Z,8.58
2017-10-14T03:30:16.673Z,8.62
2017-10-14T03:31:17.013Z,8.68
2017-10-14T03:32:16.651Z,8.57
2017-10-14T03:33:16.292Z,8.57
2017-10-14T03:34:16.643Z,8.69
2017-10-14T03:35:16.609Z,8.67
2017-10-14T03:36:16.600Z,8.69
2017-10-14T03:37:16.593Z,8.69
2017-10-14T03:38:16.237Z,8.72
2017-10-14T03:39:16.903Z,8.79
2017-10-14T03:40:16.234Z,8.77
2017-10-14T03:41:16.898Z,8.87
2017-10-14T03:42:16.212Z,9.04
2017-10-14T03:43:16.186Z,9.03
2017-10-14T03:44:16.527Z,8.97
2017-10-14T03:45:16.501Z,9.01
2017-10-14T03:46:16.513Z,9.12
2017-10-14T03:47:16.143Z,9.09
2017-10-14T03:48:16.814Z,9.2
2017-10-14T03:49:16.126Z,9.38
2017-10-14T03:50:16.475Z,9.32
2017-10-14T03:51:16.437Z,9.47
2017-10-14T03:52:16.428Z,9.47
2017-10-14T03:53:16.755Z,9.48
2017-10-14T03:54:16.410Z,9.55
2017-10-14T03:55:16.397Z,9.56
2017-10-14T03:56:16.060Z,9.57
2017-10-14T03:57:16.036Z,9.62
2017-10-14T03:58:16.365Z,9.74
2017-10-14T03:59:16.375Z,9.71
2017-10-14T04:00:16.006Z,9.74
2017-10-14T04:01:16.353Z,9.71
2017-10-14T04:02:15.986Z,9.77
2017-10-14T04:03:15.976Z,9.72
2017-10-14T04:04:16.307Z,9.72
2017-10-14T04:05:15.962Z,9.8
2017-10-14T04:06:15.951Z,9.78
2017-10-14T04:07:16.617Z,9.81
2017-10-14T04:08:16.266Z,9.82
2017-10-14T04:09:16.252Z,9.78
2017-10-14T04:10:15.908Z,9.77
2017-10-14T04:11:15.895Z,9.74
2017-10-14T04:12:16.258Z,9.81
2017-10-14T04:13:15.874Z,9.77
2017-10-14T04:14:16.207Z,9.9
2017-10-14T04:15:15.871Z,9.88
2017-10-14T04:16:15.846Z,9.95
2017-10-14T04:17:16.177Z,9.89
2017-10-14T04:18:16.182Z,10
2017-10-14T04:19:15.813Z,10.03
2017-10-14T04:20:16.143Z,10.07
2017-10-14T04:21:16.132Z,10.05
2017-10-14T04:22:16.150Z,10.14
2017-10-14T04:23:16.464Z,10.15
2017-10-14T04:24:16.109Z,10.17
2017-10-14T04:25:16.097Z,10.23
2017-10-14T04:26:16.233Z,10.32
2017-10-14T04:27:16.083Z,10.33
2017-10-14T04:28:15.728Z,10.36
2017-10-14T04:29:16.395Z,10.41
2017-10-14T04:30:16.061Z,10.46
2017-10-14T04:31:15.700Z,10.52
2017-10-14T04:32:16.026Z,10.46
2017-10-14T04:33:16.354Z,10.58
2017-10-14T04:34:15.674Z,10.54
2017-10-14T04:35:15.661Z,10.59
2017-10-14T04:36:15.650Z,10.67
2017-10-14T04:37:15.988Z,10.69
2017-10-14T04:38:15.632Z,10.67
2017-10-14T04:39:15.958Z,10.76
2017-10-14T04:40:15.948Z,10.77
2017-10-14T04:41:15.944Z,10.75
2017-10-14T04:42:15.954Z,10.77
2017-10-14T04:43:16.275Z,10.85
2017-10-14T04:44:15.934Z,10.88
2017-10-14T04:45:15.565Z,10.88
2017-10-14T04:46:15.575Z,10.9
2017-10-14T04:47:15.895Z,10.95
2017-10-14T04:48:15.901Z,10.95
2017-10-14T04:49:15.869Z,10.91
2017-10-14T04:50:15.859Z,10.98
2017-10-14T04:51:15.854Z,10.87
2017-10-14T04:52:15.501Z,11.03
2017-10-14T04:53:15.616Z,10.95
2017-10-14T04:54:16.178Z,10.98
2017-10-14T04:55:15.828Z,10.97
2017-10-14T04:56:15.462Z,10.98
2017-10-14T04:57:15.457Z,11
2017-10-14T04:58:15.445Z,11
2017-10-14T04:59:15.438Z,11.05
2017-10-14T05:00:15.776Z,11.05
2017-10-14T05:01:15.759Z,10.98
2017-10-14T05:02:15.423Z,11.02
2017-10-14T05:03:16.088Z,11.05
2017-10-14T05:04:15.405Z,11.1
2017-10-14T05:05:15.384Z,11.08
2017-10-14T05:06:15.726Z,11.15
2017-10-14T05:07:15.705Z,11.05
2017-10-14T05:08:15.717Z,11.1
2017-10-14T05:09:15.686Z,11.09
2017-10-14T05:10:15.681Z,11.05
2017-10-14T05:11:15.670Z,11.06
2017-10-14T05:12:15.662Z,11.05
2017-10-14T05:13:15.665Z,11.02
2017-10-14T05:14:15.982Z,11.02
2017-10-14T05:15:15.973Z,10.94
2017-10-14T05:16:15.648Z,11.03
2017-10-14T05:17:15.285Z,11.06
2017-10-14T05:18:15.610Z,11.03
2017-10-14T05:19:15.260Z,11.05
2017-10-14T05:20:15.249Z,11.02
2017-10-14T05:21:15.244Z,11.03
2017-10-14T05:22:15.249Z,11.12
2017-10-14T05:23:15.221Z,11.12
2017-10-14T05:24:15.564Z,11.12
2017-10-14T05:25:15.541Z,11.12
2017-10-14T05:26:15.535Z,11.05
2017-10-14T05:27:15.876Z,11.08
2017-10-14T05:28:15.516Z,11.08
2017-10-14T05:29:15.511Z,11.12
2017-10-14T05:30:15.159Z,11.1
2017-10-14T05:31:15.489Z,11.12
2017-10-14T05:32:15.157Z,11.13
2017-10-14T05:33:15.135Z,11.28
2017-10-14T05:34:15.124Z,11.23
2017-10-14T05:35:15.794Z,11.3
2017-10-14T05:36:15.447Z,11.23
2017-10-14T05:37:15.105Z,11.24
2017-10-14T05:38:15.442Z,11.27
2017-10-14T05:39:15.434Z,11.26
2017-10-14T05:40:15.070Z,11.24
2017-10-14T05:41:15.741Z,11.3
2017-10-14T05:42:15.750Z,11.33
2017-10-14T05:43:15.382Z,11.33
2017-10-14T05:44:15.037Z,11.33
2017-10-14T05:45:15.028Z,11.33
2017-10-14T05:46:15.022Z,11.34
2017-10-14T05:47:15.357Z,11.41
2017-10-14T05:48:15.004Z,11.41
2017-10-14T05:49:15.006Z,11.38
2017-10-14T05:50:15.002Z,11.45
2017-10-14T05:51:15.320Z,11.39
2017-10-14T05:52:15.313Z,11.41
2017-10-14T05:53:15.394Z,11.51
2017-10-14T05:54:14.948Z,11.45
2017-10-14T05:55:14.947Z,11.57
2017-10-14T05:56:15.616Z,11.51
2017-10-14T05:57:14.951Z,11.56
2017-10-14T05:58:15.286Z,11.52
2017-10-14T05:59:15.271Z,11.57
2017-10-14T06:00:15.443Z,11.6
2017-10-14T06:01:15.226Z,11.56
2017-10-14T06:02:15.244Z,11.53
2017-10-14T06:03:15.376Z,11.64
2017-10-14T06:04:14.878Z,11.61
2017-10-14T06:05:15.062Z,11.6
2017-10-14T06:06:15.442Z,11.64
2017-10-14T06:07:15.315Z,11.75
2017-10-14T06:08:15.363Z,11.68
2017-10-14T06:09:14.887Z,11.66
2017-10-14T06:10:14.889Z,11.79
2017-10-14T06:11:15.577Z,11.85
2017-10-14T06:12:15.327Z,11.75
2017-10-14T06:13:15.038Z,11.79
2017-10-14T06:14:14.921Z,11.89
2017-10-14T06:15:15.667Z,11.84
2017-10-14T06:16:15.457Z,11.84
2017-10-14T06:17:15.482Z,11.86
2017-10-14T06:18:15.436Z,11.91
2017-10-14T06:19:15.080Z,11.95
2017-10-14T06:20:15.436Z,11.94
2017-10-14T06:21:15.075Z,11.94
2017-10-14T06:22:14.717Z,12
2017-10-14T06:23:15.044Z,12
2017-10-14T06:24:15.047Z,12
2017-10-14T06:25:14.713Z,12.07
2017-10-14T06:26:14.680Z,12.07
2017-10-14T06:27:15.020Z,12.04
2017-10-14T06:28:15.008Z,12.07
2017-10-14T06:29:15.009Z,12.15
2017-10-14T06:30:15.324Z,12.18
2017-10-14T06:31:14.982Z,12.23
2017-10-14T06:32:15.012Z,12.19
2017-10-14T06:33:14.622Z,12.37
2017-10-14T06:34:14.616Z,12.23
2017-10-14T06:35:14.947Z,12.33
2017-10-14T06:36:14.602Z,12.29
2017-10-14T06:37:14.962Z,12.25
2017-10-14T06:38:14.582Z,12.4
2017-10-14T06:39:14.591Z,12.44
2017-10-14T06:40:14.909Z,12.43
2017-10-14T06:41:14.559Z,12.44
2017-10-14T06:42:14.558Z,12.41
2017-10-14T06:43:15.225Z,12.55
2017-10-14T06:44:15.235Z,12.53
2017-10-14T06:45:14.529Z,12.51
2017-10-14T06:46:14.864Z,12.58
2017-10-14T06:47:14.879Z,12.62
2017-10-14T06:48:14.851Z,12.63
2017-10-14T06:49:15.181Z,12.61
2017-10-14T06:50:14.828Z,12.59
2017-10-14T06:51:15.167Z,12.59
2017-10-14T06:52:14.814Z,12.63
2017-10-14T06:53:14.824Z,12.63
2017-10-14T06:54:15.149Z,12.63
2017-10-14T06:55:14.530Z,12.65
2017-10-14T06:56:14.458Z,12.77
2017-10-14T06:57:14.790Z,12.74
2017-10-14T06:58:14.428Z,12.77
2017-10-14T06:59:14.437Z,12.74
2017-10-14T07:00:14.756Z,12.76
2017-10-14T07:01:15.089Z,12.8
2017-10-14T07:02:14.401Z,12.86
2017-10-14T07:03:14.729Z,12.89
2017-10-14T07:04:14.394Z,12.94
2017-10-14T07:05:14.727Z,12.89
2017-10-14T07:06:14.715Z,13.01
2017-10-14T07:07:14.700Z,12.99
2017-10-14T07:08:14.356Z,12.98
2017-10-14T07:09:14.689Z,12.96
2017-10-14T07:10:15.017Z,12.98
2017-10-14T07:11:14.332Z,13.07
2017-10-14T07:12:14.679Z,13.03
2017-10-14T07:13:14.657Z,13.11
2017-10-14T07:14:14.991Z,13.1
2017-10-14T07:15:14.306Z,13.09
2017-10-14T07:16:14.647Z,13.11
2017-10-14T07:17:14.671Z,13.16
2017-10-14T07:18:14.623Z,13.07
2017-10-14T07:19:14.614Z,13.13
2017-10-14T07:20:14.624Z,13.1
2017-10-14T07:21:14.641Z,13.03
2017-10-14T07:22:14.251Z,13.11
2017-10-14T07:23:14.245Z,13.11
2017-10-14T07:24:14.250Z,13.16
2017-10-14T07:25:14.582Z,13.13
2017-10-14T07:26:14.693Z,13.09
2017-10-14T07:27:14.567Z,13.1
2017-10-14T07:28:14.888Z,13.1
2017-10-14T07:29:14.586Z,13.17
2017-10-14T07:30:14.196Z,13.21
2017-10-14T07:31:14.538Z,13.25
2017-10-14T07:32:14.521Z,13.24
2017-10-14T07:33:14.514Z,13.31
2017-10-14T07:34:14.170Z,13.29
2017-10-14T07:35:14.182Z,13.35
2017-10-14T07:36:14.150Z,13.48
2017-10-14T07:37:14.481Z,13.47
2017-10-14T07:38:14.138Z,13.5
2017-10-14T07:39:14.132Z,13.5
2017-10-14T07:40:14.482Z,13.5
2017-10-14T07:41:14.474Z,13.55
2017-10-14T07:42:14.796Z,13.66
2017-10-14T07:43:14.119Z,13.63
2017-10-14T07:44:14.478Z,13.66
2017-10-14T07:45:14.093Z,13.68
2017-10-14T07:46:14.109Z,13.78
2017-10-14T07:47:14.084Z,13.75
2017-10-14T07:48:14.415Z,13.87
2017-10-14T07:49:14.083Z,13.87
2017-10-14T07:50:14.058Z,13.9
2017-10-14T07:51:14.750Z,13.91
2017-10-14T07:52:14.068Z,13.94
2017-10-14T07:53:14.723Z,14.01
2017-10-14T07:54:14.029Z,14.08
2017-10-14T07:55:14.375Z,14.09
2017-10-14T07:56:14.020Z,14.09
2017-10-14T07:57:14.010Z,14.08
2017-10-14T07:58:14.004Z,14.23
2017-10-14T07:59:14.365Z,14.28
2017-10-14T08:00:14.016Z,14.33
2017-10-14T08:01:13.987Z,14.36
2017-10-14T08:02:14.342Z,14.34
2017-10-14T08:03:14.312Z,14.3
2017-10-14T08:04:13.967Z,14.34
2017-10-14T08:05:13.976Z,14.28
2017-10-14T08:06:14.636Z,14.39
2017-10-14T08:07:14.294Z,14.45
2017-10-14T08:08:14.283Z,14.52
2017-10-14T08:09:14.305Z,14.46
2017-10-14T08:10:13.946Z,14.48
2017-10-14T08:11:13.923Z,14.59
2017-10-14T08:12:14.256Z,14.66
2017-10-14T08:13:13.910Z,14.71
2017-10-14T08:14:14.249Z,14.7
2017-10-14T08:15:14.240Z,14.8
2017-10-14T08:16:14.237Z,14.77
2017-10-14T08:17:13.885Z,14.8
2017-10-14T08:18:14.220Z,14.83
2017-10-14T08:19:14.572Z,14.86
2017-10-14T08:20:13.872Z,14.93
2017-10-14T08:21:13.865Z,14.93
2017-10-14T08:22:13.859Z,14.97
2017-10-14T08:23:14.191Z,14.95
2017-10-14T08:24:13.855Z,15
2017-10-14T08:25:14.198Z,15.07
2017-10-14T08:26:13.836Z,15.07
2017-10-14T08:27:14.181Z,15.18
2017-10-14T08:28:14.509Z,15.08
2017-10-14T08:29:14.161Z,15.25
2017-10-14T08:30:14.147Z,15.22
2017-10-14T08:31:13.826Z,15.27
2017-10-14T08:32:14.143Z,15.34
2017-10-14T08:33:14.142Z,15.35
2017-10-14T08:34:13.790Z,15.43
2017-10-14T08:35:13.792Z,15.41
2017-10-14T08:36:14.142Z,15.51
2017-10-14T08:37:14.127Z,15.55
2017-10-14T08:38:14.135Z,15.65
2017-10-14T08:39:14.111Z,15.58
2017-10-14T08:40:14.457Z,15.73
2017-10-14T08:41:13.757Z,15.77
2017-10-14T08:42:14.455Z,15.77
2017-10-14T08:43:14.430Z,15.73
2017-10-14T08:44:13.740Z,15.93
2017-10-14T08:45:14.090Z,15.96
2017-10-14T08:46:13.732Z,15.98
2017-10-14T08:47:13.723Z,15.96
2017-10-14T08:48:14.060Z,15.98
2017-10-14T08:49:13.739Z,15.92
2017-10-14T08:50:13.711Z,15.99
2017-10-14T08:51:14.059Z,16.04
2017-10-14T08:52:14.046Z,15.93
2017-10-14T08:53:14.036Z,16.04
2017-10-14T08:54:14.037Z,16.1
2017-10-14T08:55:13.691Z,16.1
2017-10-14T08:56:14.021Z,16.08
2017-10-14T08:57:14.361Z,16.06
2017-10-14T08:58:14.012Z,15.99
2017-10-14T08:59:14.006Z,15.96
2017-10-14T09:00:14.342Z,15.84
2017-10-14T09:01:13.658Z,15.77
2017-10-14T09:02:13.657Z,15.74
2017-10-14T09:03:13.649Z,15.71
2017-10-14T09:04:14.010Z,15.68
2017-10-14T09:05:13.639Z,15.74
2017-10-14T09:06:13.637Z,15.67
2017-10-14T09:07:13.983Z,15.6
2017-10-14T09:08:13.632Z,15.59
2017-10-14T09:09:13.959Z,15.49
2017-10-14T09:10:13.620Z,15.43
2017-10-14T09:11:13.950Z,15.35
2017-10-14T09:12:13.605Z,15.37
2017-10-14T09:13:13.941Z,15.22
2017-10-14T09:14:14.278Z,15.2
2017-10-14T09:15:13.613Z,15.27
2017-10-14T09:16:14.270Z,15.23
2017-10-14T09:17:13.927Z,15.25
2017-10-14T09:18:14.256Z,15.3
2017-10-14T09:19:13.574Z,15.33
2017-10-14T09:20:13.566Z,15.33
2017-10-14T09:21:13.905Z,15.33
2017-10-14T09:22:14.242Z,15.44
2017-10-14T09:23:13.901Z,15.53
2017-10-14T09:24:13.548Z,15.55
2017-10-14T09:25:13.879Z,15.45
2017-10-14T09:26:13.536Z,15.52
2017-10-14T09:27:13.900Z,15.51
2017-10-14T09:28:13.868Z,15.52
2017-10-14T09:29:13.868Z,15.59
2017-10-14T09:30:14.208Z,15.59
2017-10-14T09:31:13.877Z,15.47
2017-10-14T09:32:13.847Z,15.59
2017-10-14T09:33:14.183Z,15.62
2017-10-14T09:34:13.834Z,15.53
2017-10-14T09:35:14.178Z,15.52
2017-10-14T09:36:14.173Z,15.59
2017-10-14T09:37:13.503Z,15.55
2017-10-14T09:38:13.816Z,15.55
2017-10-14T09:39:13.812Z,15.62
2017-10-14T09:40:13.805Z,15.68
2017-10-14T09:41:13.808Z,15.73
2017-10-14T09:42:13.793Z,15.88
2017-10-14T09:43:13.789Z,15.89
2017-10-14T09:44:14.123Z,15.92
2017-10-14T09:45:13.442Z,15.99
2017-10-14T09:46:13.773Z,16.11
2017-10-14T09:47:13.429Z,16.13
2017-10-14T09:48:13.780Z,16.16
2017-10-14T09:49:13.422Z,16.25
2017-10-14T09:50:13.424Z,16.29
2017-10-14T09:51:13.430Z,16.29
2017-10-14T09:52:13.407Z,16.37
2017-10-14T09:53:13.409Z,16.51
2017-10-14T09:54:13.742Z,16.62
2017-10-14T09:55:13.392Z,16.69
2017-10-14T09:56:13.932Z,16.7
2017-10-14T09:57:13.732Z,16.67
2017-10-14T09:58:13.429Z,16.76
2017-10-14T09:59:13.714Z,16.72
2017-10-14T10:00:13.369Z,16.7
2017-10-14T10:01:13.364Z,16.76
2017-10-14T10:02:13.363Z,16.72
2017-10-14T10:03:13.696Z,16.73
2017-10-14T10:04:13.365Z,16.84
2017-10-14T10:05:13.688Z,16.81
2017-10-14T10:06:13.346Z,16.9
2017-10-14T10:07:13.680Z,16.88
2017-10-14T10:08:13.677Z,16.73
2017-10-14T10:09:13.341Z,16.88
2017-10-14T10:10:13.330Z,16.85
2017-10-14T10:11:13.656Z,16.95
2017-10-14T10:12:13.995Z,16.99
2017-10-14T10:13:13.314Z,17.02
2017-10-14T10:14:13.660Z,16.99
2017-10-14T10:15:13.643Z,17.02
2017-10-14T10:16:13.992Z,16.99
2017-10-14T10:17:13.978Z,17.07
2017-10-14T10:18:13.627Z,17.06
2017-10-14T10:19:13.629Z,17.09
2017-10-14T10:20:13.302Z,17.07
2017-10-14T10:21:13.281Z,17.07
2017-10-14T10:22:13.276Z,17.13
2017-10-14T10:23:13.627Z,17.12
2017-10-14T10:24:13.606Z,17.15
2017-10-14T10:25:13.604Z,17.15
2017-10-14T10:26:13.938Z,17.17
2017-10-14T10:27:13.595Z,17.28
2017-10-14T10:28:13.589Z,17.25
2017-10-14T10:29:13.588Z,17.32
2017-10-14T10:30:13.584Z,17.4
2017-10-14T10:31:13.915Z,17.43
2017-10-14T10:32:13.576Z,17.43
2017-10-14T10:33:13.567Z,17.5
2017-10-14T10:34:13.564Z,17.43
2017-10-14T10:35:13.221Z,17.45
2017-10-14T10:36:13.217Z,17.42
2017-10-14T10:37:13.556Z,17.46
2017-10-14T10:38:13.231Z,17.45
2017-10-14T10:39:13.567Z,17.35
2017-10-14T10:40:13.205Z,17.49
2017-10-14T10:41:13.198Z,17.57
2017-10-14T10:42:13.537Z,17.54
2017-10-14T10:43:13.528Z,17.62
2017-10-14T10:44:13.878Z,17.62
2017-10-14T10:45:13.870Z,17.58
2017-10-14T10:46:13.530Z,17.6
2017-10-14T10:47:13.177Z,17.46
2017-10-14T10:48:13.511Z,17.58
2017-10-14T10:49:13.171Z,17.52
2017-10-14T10:50:13.850Z,17.43
2017-10-14T10:51:13.164Z,17.6
2017-10-14T10:52:13.158Z,17.55
2017-10-14T10:53:13.835Z,17.62
2017-10-14T10:54:13.152Z,17.73
2017-10-14T10:55:13.157Z,17.79
2017-10-14T10:56:13.487Z,17.81
2017-10-14T10:57:13.139Z,17.86
2017-10-14T10:58:13.476Z,17.83
2017-10-14T10:59:13.133Z,17.96
2017-10-14T11:00:13.471Z,17.99
2017-10-14T11:01:13.474Z,18.03
2017-10-14T11:02:13.124Z,17.98
2017-10-14T11:03:13.458Z,18.03
2017-10-14T11:04:13.456Z,18.14
2017-10-14T11:05:13.117Z,18.19
2017-10-14T11:06:13.489Z,18.17
2017-10-14T11:07:13.108Z,18.19
2017-10-14T11:08:13.442Z,18.16
2017-10-14T11:09:13.454Z,18.2
2017-10-14T11:10:13.457Z,18.2
2017-10-14T11:11:13.812Z,18.23
2017-10-14T11:12:13.431Z,18.23
2017-10-14T11:13:13.423Z,18.24
2017-10-14T11:14:13.134Z,18.23
2017-10-14T11:15:13.079Z,18.19
2017-10-14T11:16:13.078Z,18.27
2017-10-14T11:17:13.073Z,18.32
2017-10-14T11:18:13.748Z,18.29
2017-10-14T11:19:13.754Z,18.34
2017-10-14T11:20:13.425Z,18.39
2017-10-14T11:21:13.761Z,18.44
2017-10-14T11:22:13.398Z,18.5
2017-10-14T11:23:13.050Z,18.41
2017-10-14T11:24:13.049Z,18.44
2017-10-14T11:25:13.047Z,18.36
2017-10-14T11:26:13.043Z,18.35
2017-10-14T11:27:13.402Z,18.34
2017-10-14T11:28:13.039Z,18.39
2017-10-14T11:29:13.388Z,18.38
2017-10-14T11:30:13.036Z,18.45
2017-10-14T11:31:13.370Z,18.56
2017-10-14T11:32:13.025Z,18.54
2017-10-14T11:33:13.363Z,18.45
2017-10-14T11:34:13.358Z,18.53
2017-10-14T11:35:13.015Z,18.5
2017-10-14T11:36:13.691Z,18.42
2017-10-14T11:37:13.356Z,18.44
2017-10-14T11:38:13.352Z,18.49
2017-10-14T11:39:13.018Z,18.5
2017-10-14T11:40:13.002Z,18.45
2017-10-14T11:41:12.997Z,18.5
2017-10-14T11:42:13.346Z,18.53
2017-10-14T11:43:13.334Z,18.56
2017-10-14T11:44:13.680Z,18.54
2017-10-14T11:45:13.333Z,18.6
2017-10-14T11:46:13.344Z,18.51
2017-10-14T11:47:13.009Z,18.42
2017-10-14T11:48:12.980Z,18.36
2017-10-14T11:49:13.313Z,18.35
2017-10-14T11:50:13.311Z,18.29
2017-10-14T11:51:13.310Z,18.2
2017-10-14T11:52:12.966Z,18.26
2017-10-14T11:53:12.962Z,18.19
2017-10-14T11:54:12.960Z,18.27
2017-10-14T11:55:13.331Z,18.23
2017-10-14T11:56:13.295Z,18.21
2017-10-14T11:57:13.630Z,18.34
2017-10-14T11:58:12.947Z,18.29
2017-10-14T11:59:12.944Z,18.27
2017-10-14T12:00:13.284Z,18.2
2017-10-14T12:01:13.299Z,18.23
2017-10-14T12:02:13.280Z,18.34
2017-10-14T12:03:13.273Z,18.29
2017-10-14T12:04:13.269Z,18.13
2017-10-14T12:05:12.945Z,18.21
2017-10-14T12:06:27.826Z,18.17
2017-10-14T12:07:12.921Z,18.17
2017-10-14T12:08:12.930Z,18.1
2017-10-14T12:09:12.917Z,18.02
2017-10-14T12:10:13.608Z,18.01
2017-10-14T12:11:13.255Z,18.02
2017-10-14T12:12:12.907Z,18.05
2017-10-14T12:13:13.258Z,18.03
2017-10-14T12:14:12.900Z,18.05
2017-10-14T12:15:13.239Z,18.06
2017-10-14T12:16:12.894Z,18.17
2017-10-14T12:17:12.909Z,18.03
2017-10-14T12:18:12.908Z,18.02
2017-10-14T12:19:13.236Z,18.06
2017-10-14T12:20:13.570Z,18.08
2017-10-14T12:21:13.218Z,18.05
2017-10-14T12:22:13.219Z,18.11
2017-10-14T12:23:12.888Z,18.01
2017-10-14T12:24:13.214Z,18.03
2017-10-14T12:25:13.553Z,18.08
2017-10-14T12:26:12.869Z,18.17
2017-10-14T12:27:13.559Z,18.17
2017-10-14T12:28:13.554Z,18.23
2017-10-14T12:29:13.196Z,18.26
2017-10-14T12:30:12.852Z,18.32
2017-10-14T12:31:12.853Z,18.32
2017-10-14T12:32:13.185Z,18.35
2017-10-14T12:33:12.846Z,18.35
2017-10-14T12:34:12.841Z,18.32
2017-10-14T12:35:13.180Z,18.23
2017-10-14T12:36:13.202Z,18.13
2017-10-14T12:37:13.182Z,18.2
2017-10-14T12:38:13.168Z,18.16
2017-10-14T12:39:13.171Z,18.16
2017-10-14T12:40:13.174Z,18.17
2017-10-14T12:41:12.820Z,18.17
2017-10-14T12:42:12.820Z,18.17
2017-10-14T12:43:12.817Z,18.19
2017-10-14T12:44:13.502Z,18.23
2017-10-14T12:45:12.816Z,18.29
2017-10-14T12:46:13.144Z,18.38
2017-10-14T12:47:12.822Z,18.29
2017-10-14T12:48:12.800Z,18.29
2017-10-14T12:49:12.798Z,18.26
2017-10-14T12:50:13.482Z,18.2
2017-10-14T12:51:13.150Z,18.19
2017-10-14T12:52:12.788Z,18.24
2017-10-14T12:53:12.796Z,18.27
2017-10-14T12:54:12.784Z,18.34
2017-10-14T12:55:13.155Z,18.17
2017-10-14T12:56:12.780Z,18.16
2017-10-14T12:57:12.787Z,18.23
2017-10-14T12:58:13.112Z,18.21
2017-10-14T12:59:12.789Z,18.2
2017-10-14T13:00:13.106Z,18.23
2017-10-14T13:01:12.760Z,18.2
2017-10-14T13:02:12.756Z,18.19